sensor_id;sensor_type;location;lat;lon;timestamp;pressure;altitude;pressure_sealevel;temperature;humidity
16461;BME280;8341;42.048;24.650;2023-01-27T00:00:52;96483.25;;;2.48;100.00
16461;BME280;8341;42.048;24.650;2023-01-27T00:03:19;96486.00;;;2.57;100.00
16461;BME280;8341;42.048;24.650;2023-01-27T00:05:46;96495.69;;;2.54;100.00
16461;BME280;8341;42.048;24.650;2023-01-27T00:08:14;96491.00;;;2.68;100.00
16461;BME280;8341;42.048;24.650;2023-01-27T00:10:41;96490.22;;;2.80;100.00
16461;BME280;8341;42.048;24.650;2023-01-27T00:13:09;96482.31;;;2.85;100.00
16461;BME280;8341;42.048;24.650;2023-01-27T00:15:53;96485.50;;;2.71;100.00
16461;BME280;8341;42.048;24.650;2023-01-27T00:18:20;96478.00;;;2.66;100.00
16461;BME280;8341;42.048;24.650;2023-01-27T00:20:48;96477.50;;;2.80;100.00
16461;BME280;8341;42.048;24.650;2023-01-27T00:23:32;96464.09;;;2.89;100.00
16461;BME280;8341;42.048;24.650;2023-01-27T00:26:17;96459.31;;;2.93;100.00
16461;BME280;8341;42.048;24.650;2023-01-27T00:28:45;96466.84;;;2.98;100.00
16461;BME280;8341;42.048;24.650;2023-01-27T00:31:15;96460.56;;;3.01;100.00
16461;BME280;8341;42.048;24.650;2023-01-27T00:33:59;96461.44;;;2.98;100.00
16461;BME280;8341;42.048;24.650;2023-01-27T00:36:34;96470.41;;;2.95;100.00
16461;BME280;8341;42.048;24.650;2023-01-27T00:39:01;96465.66;;;2.78;100.00
16461;BME280;8341;42.048;24.650;2023-01-27T00:41:27;96469.00;;;2.82;100.00
16461;BME280;8341;42.048;24.650;2023-01-27T00:43:54;96456.59;;;2.84;100.00
16461;BME280;8341;42.048;24.650;2023-01-27T00:46:23;96452.56;;;2.89;100.00
16461;BME280;8341;42.048;24.650;2023-01-27T00:48:50;96450.63;;;2.89;100.00
16461;BME280;8341;42.048;24.650;2023-01-27T00:51:18;96448.81;;;2.86;100.00
16461;BME280;8341;42.048;24.650;2023-01-27T00:53:45;96453.63;;;2.91;100.00
16461;BME280;8341;42.048;24.650;2023-01-27T00:56:12;96452.88;;;2.91;100.00
16461;BME280;8341;42.048;24.650;2023-01-27T00:58:39;96438.81;;;2.87;100.00
16461;BME280;8341;42.048;24.650;2023-01-27T01:01:10;96413.91;;;2.74;100.00
16461;BME280;8341;42.048;24.650;2023-01-27T01:03:39;96417.44;;;2.62;100.00
16461;BME280;8341;42.048;24.650;2023-01-27T01:06:07;96410.25;;;2.68;100.00
16461;BME280;8341;42.048;24.650;2023-01-27T01:08:35;96395.84;;;2.83;100.00
16461;BME280;8341;42.048;24.650;2023-01-27T01:11:03;96395.28;;;2.88;100.00
16461;BME280;8341;42.048;24.650;2023-01-27T01:13:31;96415.34;;;2.87;100.00
16461;BME280;8341;42.048;24.650;2023-01-27T01:16:03;96414.09;;;2.79;100.00
16461;BME280;8341;42.048;24.650;2023-01-27T01:18:31;96418.91;;;2.84;100.00
16461;BME280;8341;42.048;24.650;2023-01-27T01:20:59;96434.59;;;2.86;100.00
16461;BME280;8341;42.048;24.650;2023-01-27T01:23:26;96432.06;;;2.82;100.00
16461;BME280;8341;42.048;24.650;2023-01-27T01:25:54;96432.06;;;2.82;100.00
16461;BME280;8341;42.048;24.650;2023-01-27T01:28:21;96427.66;;;2.76;100.00
16461;BME280;8341;42.048;24.650;2023-01-27T01:30:48;96418.16;;;2.62;100.00
16461;BME280;8341;42.048;24.650;2023-01-27T01:33:15;96387.00;;;2.52;100.00
16461;BME280;8341;42.048;24.650;2023-01-27T01:35:42;96414.34;;;2.72;100.00
16461;BME280;8341;42.048;24.650;2023-01-27T01:38:11;96419.19;;;2.86;100.00
16461;BME280;8341;42.048;24.650;2023-01-27T01:40:40;96437.47;;;2.91;100.00
16461;BME280;8341;42.048;24.650;2023-01-27T01:43:11;96421.63;;;2.93;100.00
16461;BME280;8341;42.048;24.650;2023-01-27T01:45:45;96416.03;;;2.79;100.00
16461;BME280;8341;42.048;24.650;2023-01-27T01:48:16;96417.25;;;2.87;100.00
16461;BME280;8341;42.048;24.650;2023-01-27T01:50:47;96399.75;;;2.82;100.00
16461;BME280;8341;42.048;24.650;2023-01-27T01:53:19;96407.88;;;2.91;100.00
16461;BME280;8341;42.048;24.650;2023-01-27T01:55:47;96413.44;;;2.97;100.00
16461;BME280;8341;42.048;24.650;2023-01-27T01:58:15;96417.47;;;3.01;100.00
16461;BME280;8341;42.048;24.650;2023-01-27T02:00:42;96410.28;;;2.98;100.00
16461;BME280;8341;42.048;24.650;2023-01-27T02:03:09;96407.16;;;3.00;100.00
16461;BME280;8341;42.048;24.650;2023-01-27T02:05:39;96394.78;;;3.11;100.00
16461;BME280;8341;42.048;24.650;2023-01-27T02:08:11;96379.50;;;3.08;100.00
16461;BME280;8341;42.048;24.650;2023-01-27T02:10:42;96390.75;;;3.16;100.00
16461;BME280;8341;42.048;24.650;2023-01-27T02:13:09;96380.25;;;3.09;100.00
16461;BME280;8341;42.048;24.650;2023-01-27T02:15:36;96377.25;;;3.07;100.00
16461;BME280;8341;42.048;24.650;2023-01-27T02:18:03;96379.97;;;3.07;100.00
16461;BME280;8341;42.048;24.650;2023-01-27T02:20:37;96372.47;;;3.11;100.00
16461;BME280;8341;42.048;24.650;2023-01-27T02:23:12;96344.66;;;3.05;100.00
16461;BME280;8341;42.048;24.650;2023-01-27T02:25:50;96345.06;;;3.03;100.00
16461;BME280;8341;42.048;24.650;2023-01-27T02:28:19;96348.69;;;3.09;100.00
16461;BME280;8341;42.048;24.650;2023-01-27T02:30:46;96355.13;;;3.12;100.00
16461;BME280;8341;42.048;24.650;2023-01-27T02:33:14;96349.00;;;3.11;100.00
16461;BME280;8341;42.048;24.650;2023-01-27T02:35:43;96346.13;;;3.06;100.00
16461;BME280;8341;42.048;24.650;2023-01-27T02:38:16;96346.59;;;3.13;100.00
16461;BME280;8341;42.048;24.650;2023-01-27T02:40:46;96357.69;;;3.15;100.00
16461;BME280;8341;42.048;24.650;2023-01-27T02:43:16;96339.84;;;3.09;100.00
16461;BME280;8341;42.048;24.650;2023-01-27T02:45:44;96322.06;;;3.11;100.00
16461;BME280;8341;42.048;24.650;2023-01-27T02:48:11;96331.38;;;3.20;100.00
16461;BME280;8341;42.048;24.650;2023-01-27T02:50:38;96338.41;;;3.17;100.00
16461;BME280;8341;42.048;24.650;2023-01-27T02:53:05;96336.44;;;3.17;100.00
16461;BME280;8341;42.048;24.650;2023-01-27T02:55:32;96343.31;;;3.18;100.00
16461;BME280;8341;42.048;24.650;2023-01-27T02:57:59;96330.34;;;2.86;100.00
16461;BME280;8341;42.048;24.650;2023-01-27T03:00:27;96330.34;;;2.77;100.00
16461;BME280;8341;42.048;24.650;2023-01-27T03:02:54;96325.53;;;2.72;100.00
16461;BME280;8341;42.048;24.650;2023-01-27T03:05:21;96318.06;;;2.85;100.00
16461;BME280;8341;42.048;24.650;2023-01-27T03:07:48;96314.22;;;2.95;100.00
16461;BME280;8341;42.048;24.650;2023-01-27T03:10:15;96319.34;;;3.02;100.00
16461;BME280;8341;42.048;24.650;2023-01-27T03:12:43;96312.75;;;2.94;100.00
16461;BME280;8341;42.048;24.650;2023-01-27T03:15:10;96323.97;;;3.02;100.00
16461;BME280;8341;42.048;24.650;2023-01-27T03:18:03;96318.16;;;3.03;100.00
16461;BME280;8341;42.048;24.650;2023-01-27T03:20:37;96326.56;;;3.05;100.00
16461;BME280;8341;42.048;24.650;2023-01-27T03:23:04;96330.13;;;3.02;100.00
16461;BME280;8341;42.048;24.650;2023-01-27T03:25:31;96333.41;;;3.06;100.00
16461;BME280;8341;42.048;24.650;2023-01-27T03:27:58;96323.44;;;2.76;100.00
16461;BME280;8341;42.048;24.650;2023-01-27T03:30:25;96326.13;;;2.76;100.00
16461;BME280;8341;42.048;24.650;2023-01-27T03:32:52;96331.88;;;2.87;100.00
16461;BME280;8341;42.048;24.650;2023-01-27T03:35:21;96327.53;;;2.90;100.00
16461;BME280;8341;42.048;24.650;2023-01-27T03:37:48;96328.06;;;2.76;100.00
16461;BME280;8341;42.048;24.650;2023-01-27T03:40:33;96321.13;;;2.66;100.00
16461;BME280;8341;42.048;24.650;2023-01-27T03:43:17;96331.06;;;2.78;100.00
16461;BME280;8341;42.048;24.650;2023-01-27T03:46:02;96330.06;;;2.93;100.00
16461;BME280;8341;42.048;24.650;2023-01-27T03:48:41;96309.13;;;2.88;100.00
16461;BME280;8341;42.048;24.650;2023-01-27T03:51:09;96323.81;;;2.96;100.00
16461;BME280;8341;42.048;24.650;2023-01-27T03:53:36;96329.19;;;2.96;100.00
16461;BME280;8341;42.048;24.650;2023-01-27T03:56:04;96333.56;;;3.03;100.00
16461;BME280;8341;42.048;24.650;2023-01-27T03:58:33;96328.03;;;3.06;100.00
16461;BME280;8341;42.048;24.650;2023-01-27T04:01:02;96322.66;;;3.06;100.00
16461;BME280;8341;42.048;24.650;2023-01-27T04:03:30;96313.03;;;2.87;100.00
16461;BME280;8341;42.048;24.650;2023-01-27T04:06:17;96319.94;;;2.97;100.00
16461;BME280;8341;42.048;24.650;2023-01-27T04:09:02;96334.59;;;2.96;100.00
16461;BME280;8341;42.048;24.650;2023-01-27T04:11:29;96323.53;;;3.03;100.00
16461;BME280;8341;42.048;24.650;2023-01-27T04:14:14;96311.56;;;3.04;100.00
16461;BME280;8341;42.048;24.650;2023-01-27T04:16:41;96312.50;;;3.10;100.00
16461;BME280;8341;42.048;24.650;2023-01-27T04:19:09;96315.50;;;3.12;100.00
16461;BME280;8341;42.048;24.650;2023-01-27T04:21:38;96311.28;;;3.02;100.00
16461;BME280;8341;42.048;24.650;2023-01-27T04:24:05;96301.78;;;2.89;100.00
16461;BME280;8341;42.048;24.650;2023-01-27T04:26:43;96310.22;;;3.00;100.00
16461;BME280;8341;42.048;24.650;2023-01-27T04:29:11;96299.56;;;2.96;100.00
16461;BME280;8341;42.048;24.650;2023-01-27T04:31:39;96295.84;;;2.94;100.00
16461;BME280;8341;42.048;24.650;2023-01-27T04:34:07;96290.56;;;2.90;100.00
16461;BME280;8341;42.048;24.650;2023-01-27T04:36:34;96294.78;;;2.91;100.00
16461;BME280;8341;42.048;24.650;2023-01-27T04:39:02;96304.38;;;3.01;100.00
16461;BME280;8341;42.048;24.650;2023-01-27T04:41:29;96295.41;;;3.04;100.00
16461;BME280;8341;42.048;24.650;2023-01-27T04:43:56;96282.53;;;3.08;100.00
16461;BME280;8341;42.048;24.650;2023-01-27T04:46:23;96276.28;;;3.11;100.00
16461;BME280;8341;42.048;24.650;2023-01-27T04:48:50;96296.88;;;2.96;100.00
16461;BME280;8341;42.048;24.650;2023-01-27T04:51:17;96302.97;;;2.79;100.00
16461;BME280;8341;42.048;24.650;2023-01-27T04:53:44;96309.41;;;2.90;100.00
16461;BME280;8341;42.048;24.650;2023-01-27T04:56:21;96306.72;;;2.90;100.00
16461;BME280;8341;42.048;24.650;2023-01-27T04:58:49;96317.53;;;2.99;100.00
16461;BME280;8341;42.048;24.650;2023-01-27T05:01:16;96305.72;;;2.97;100.00
16461;BME280;8341;42.048;24.650;2023-01-27T05:03:43;96301.25;;;3.03;100.00
16461;BME280;8341;42.048;24.650;2023-01-27T05:06:10;96307.19;;;2.98;100.00
16461;BME280;8341;42.048;24.650;2023-01-27T05:08:37;96307.06;;;2.92;100.00
16461;BME280;8341;42.048;24.650;2023-01-27T05:11:04;96306.31;;;2.92;100.00
16461;BME280;8341;42.048;24.650;2023-01-27T05:13:33;96308.69;;;2.90;100.00
16461;BME280;8341;42.048;24.650;2023-01-27T05:16:05;96304.38;;;2.92;100.00
16461;BME280;8341;42.048;24.650;2023-01-27T05:18:32;96317.97;;;2.98;100.00
16461;BME280;8341;42.048;24.650;2023-01-27T05:20:59;96329.81;;;3.00;100.00
16461;BME280;8341;42.048;24.650;2023-01-27T05:23:26;96326.81;;;2.98;100.00
16461;BME280;8341;42.048;24.650;2023-01-27T05:26:04;96327.28;;;3.06;100.00
16461;BME280;8341;42.048;24.650;2023-01-27T05:28:33;96322.94;;;3.08;100.00
16461;BME280;8341;42.048;24.650;2023-01-27T05:31:05;96324.16;;;3.07;100.00
16461;BME280;8341;42.048;24.650;2023-01-27T05:33:33;96330.88;;;3.03;100.00
16461;BME280;8341;42.048;24.650;2023-01-27T05:36:01;96331.03;;;3.08;100.00
16461;BME280;8341;42.048;24.650;2023-01-27T05:38:28;96342.25;;;3.07;100.00
16461;BME280;8341;42.048;24.650;2023-01-27T05:40:57;96336.09;;;2.97;100.00
16461;BME280;8341;42.048;24.650;2023-01-27T05:43:25;96326.38;;;3.00;100.00
16461;BME280;8341;42.048;24.650;2023-01-27T05:46:00;96331.88;;;2.96;100.00
16461;BME280;8341;42.048;24.650;2023-01-27T05:48:27;96326.81;;;2.98;100.00
16461;BME280;8341;42.048;24.650;2023-01-27T05:50:55;96331.34;;;3.10;100.00
16461;BME280;8341;42.048;24.650;2023-01-27T05:53:23;96330.13;;;3.11;100.00
16461;BME280;8341;42.048;24.650;2023-01-27T05:55:50;96330.38;;;2.95;100.00
16461;BME280;8341;42.048;24.650;2023-01-27T05:58:18;96328.72;;;2.89;100.00
16461;BME280;8341;42.048;24.650;2023-01-27T06:00:45;96334.22;;;2.85;100.00
16461;BME280;8341;42.048;24.650;2023-01-27T06:03:14;96323.78;;;2.87;100.00
16461;BME280;8341;42.048;24.650;2023-01-27T06:05:55;96327.72;;;3.04;100.00
16461;BME280;8341;42.048;24.650;2023-01-27T06:08:23;96319.53;;;3.08;100.00
16461;BME280;8341;42.048;24.650;2023-01-27T06:10:50;96321.47;;;3.07;100.00
16461;BME280;8341;42.048;24.650;2023-01-27T06:13:20;96314.28;;;3.13;100.00
16461;BME280;8341;42.048;24.650;2023-01-27T06:15:47;96323.44;;;3.25;100.00
16461;BME280;8341;42.048;24.650;2023-01-27T06:18:17;96330.81;;;3.34;100.00
16461;BME280;8341;42.048;24.650;2023-01-27T06:20:45;96330.53;;;3.50;100.00
16461;BME280;8341;42.048;24.650;2023-01-27T06:23:13;96336.25;;;3.61;100.00
16461;BME280;8341;42.048;24.650;2023-01-27T06:25:42;96329.97;;;3.64;100.00
16461;BME280;8341;42.048;24.650;2023-01-27T06:28:10;96337.72;;;3.53;100.00
16461;BME280;8341;42.048;24.650;2023-01-27T06:30:37;96327.25;;;3.55;100.00
16461;BME280;8341;42.048;24.650;2023-01-27T06:33:05;96334.44;;;3.49;100.00
16461;BME280;8341;42.048;24.650;2023-01-27T06:35:35;96344.72;;;3.32;100.00
16461;BME280;8341;42.048;24.650;2023-01-27T06:38:05;96332.63;;;3.46;100.00
16461;BME280;8341;42.048;24.650;2023-01-27T06:40:34;96310.03;;;3.43;100.00
16461;BME280;8341;42.048;24.650;2023-01-27T06:43:01;96337.88;;;3.67;100.00
16461;BME280;8341;42.048;24.650;2023-01-27T06:45:28;96348.84;;;3.73;100.00
16461;BME280;8341;42.048;24.650;2023-01-27T06:47:56;96355.88;;;3.79;100.00
16461;BME280;8341;42.048;24.650;2023-01-27T06:50:24;96354.41;;;3.88;100.00
16461;BME280;8341;42.048;24.650;2023-01-27T06:52:58;96343.28;;;3.86;100.00
16461;BME280;8341;42.048;24.650;2023-01-27T06:55:25;96332.81;;;3.88;100.00
16461;BME280;8341;42.048;24.650;2023-01-27T06:57:52;96344.66;;;4.08;100.00
16461;BME280;8341;42.048;24.650;2023-01-27T07:00:19;96311.69;;;3.95;100.00
16461;BME280;8341;42.048;24.650;2023-01-27T07:02:46;96315.88;;;3.96;100.00
16461;BME280;8341;42.048;24.650;2023-01-27T07:05:13;96332.66;;;4.18;100.00
16461;BME280;8341;42.048;24.650;2023-01-27T07:07:40;96340.41;;;4.34;100.00
16461;BME280;8341;42.048;24.650;2023-01-27T07:10:10;96329.03;;;4.30;100.00
16461;BME280;8341;42.048;24.650;2023-01-27T07:12:37;96336.81;;;4.47;100.00
16461;BME280;8341;42.048;24.650;2023-01-27T07:15:05;96334.56;;;4.54;100.00
16461;BME280;8341;42.048;24.650;2023-01-27T07:17:32;96344.88;;;4.56;100.00
16461;BME280;8341;42.048;24.650;2023-01-27T07:19:59;96348.47;;;4.62;100.00
16461;BME280;8341;42.048;24.650;2023-01-27T07:22:25;96338.00;;;4.46;100.00
16461;BME280;8341;42.048;24.650;2023-01-27T07:24:52;96348.97;;;4.24;100.00
16461;BME280;8341;42.048;24.650;2023-01-27T07:27:21;96357.69;;;4.10;100.00
16461;BME280;8341;42.048;24.650;2023-01-27T07:29:48;96348.06;;;3.63;100.00
16461;BME280;8341;42.048;24.650;2023-01-27T07:32:15;96346.09;;;3.46;100.00
16461;BME280;8341;42.048;24.650;2023-01-27T07:34:42;96347.19;;;3.66;100.00
16461;BME280;8341;42.048;24.650;2023-01-27T07:37:09;96353.63;;;3.96;100.00
16461;BME280;8341;42.048;24.650;2023-01-27T07:39:36;96353.94;;;4.16;100.00
16461;BME280;8341;42.048;24.650;2023-01-27T07:42:03;96347.31;;;4.26;100.00
16461;BME280;8341;42.048;24.650;2023-01-27T07:44:32;96345.53;;;4.41;100.00
16461;BME280;8341;42.048;24.650;2023-01-27T07:46:59;96341.59;;;4.52;100.00
16461;BME280;8341;42.048;24.650;2023-01-27T07:49:26;96329.25;;;4.60;100.00
16461;BME280;8341;42.048;24.650;2023-01-27T07:51:53;96362.97;;;4.82;100.00
16461;BME280;8341;42.048;24.650;2023-01-27T07:54:20;96338.91;;;4.52;100.00
16461;BME280;8341;42.048;24.650;2023-01-27T07:56:47;96361.66;;;4.69;100.00
16461;BME280;8341;42.048;24.650;2023-01-27T07:59:14;96348.00;;;4.72;100.00
16461;BME280;8341;42.048;24.650;2023-01-27T08:01:42;96348.72;;;4.73;100.00
16461;BME280;8341;42.048;24.650;2023-01-27T08:04:09;96350.47;;;4.94;100.00
16461;BME280;8341;42.048;24.650;2023-01-27T08:06:37;96350.13;;;5.01;100.00
16461;BME280;8341;42.048;24.650;2023-01-27T08:09:04;96343.50;;;5.11;100.00
16461;BME280;8341;42.048;24.650;2023-01-27T08:11:31;96349.78;;;5.17;100.00
16461;BME280;8341;42.048;24.650;2023-01-27T08:13:58;96326.41;;;5.05;100.00
16461;BME280;8341;42.048;24.650;2023-01-27T08:16:24;96318.03;;;5.03;100.00
16461;BME280;8341;42.048;24.650;2023-01-27T08:18:53;96324.69;;;5.26;100.00
16461;BME280;8341;42.048;24.650;2023-01-27T08:21:21;96305.00;;;5.25;100.00
16461;BME280;8341;42.048;24.650;2023-01-27T08:23:49;96307.00;;;5.63;100.00
16461;BME280;8341;42.048;24.650;2023-01-27T08:26:16;96326.41;;;5.61;100.00
16461;BME280;8341;42.048;24.650;2023-01-27T08:28:43;96317.19;;;5.68;100.00
16461;BME280;8341;42.048;24.650;2023-01-27T08:31:11;96317.94;;;5.92;100.00
16461;BME280;8341;42.048;24.650;2023-01-27T08:33:39;96321.25;;;6.11;98.94
16461;BME280;8341;42.048;24.650;2023-01-27T08:36:10;96326.75;;;6.16;97.62
16461;BME280;8341;42.048;24.650;2023-01-27T08:38:38;96322.31;;;6.28;96.68
16461;BME280;8341;42.048;24.650;2023-01-27T08:41:07;96323.81;;;6.29;95.93
16461;BME280;8341;42.048;24.650;2023-01-27T08:43:35;96322.19;;;6.22;95.93
16461;BME280;8341;42.048;24.650;2023-01-27T08:46:02;96329.56;;;5.84;94.47
16461;BME280;8341;42.048;24.650;2023-01-27T08:48:31;96325.53;;;6.03;95.04
16461;BME280;8341;42.048;24.650;2023-01-27T08:50:59;96329.06;;;6.09;95.83
16461;BME280;8341;42.048;24.650;2023-01-27T08:53:28;96330.22;;;6.17;95.73
16461;BME280;8341;42.048;24.650;2023-01-27T08:55:56;96326.69;;;6.11;95.98
16461;BME280;8341;42.048;24.650;2023-01-27T08:58:24;96331.06;;;6.08;94.86
16461;BME280;8341;42.048;24.650;2023-01-27T09:00:51;96324.03;;;6.02;95.32
16461;BME280;8341;42.048;24.650;2023-01-27T09:03:18;96327.00;;;6.04;96.67
16461;BME280;8341;42.048;24.650;2023-01-27T09:05:46;96321.25;;;6.11;95.93
16461;BME280;8341;42.048;24.650;2023-01-27T09:08:13;96319.38;;;6.17;95.43
16461;BME280;8341;42.048;24.650;2023-01-27T09:10:41;96318.75;;;6.22;96.12
16461;BME280;8341;42.048;24.650;2023-01-27T09:13:08;96324.09;;;6.31;95.84
16461;BME280;8341;42.048;24.650;2023-01-27T09:15:36;96321.75;;;6.39;95.86
16461;BME280;8341;42.048;24.650;2023-01-27T09:18:03;96309.03;;;6.45;96.13
16461;BME280;8341;42.048;24.650;2023-01-27T09:20:31;96311.03;;;6.59;95.77
16461;BME280;8341;42.048;24.650;2023-01-27T09:22:59;96308.03;;;6.71;95.21
16461;BME280;8341;42.048;24.650;2023-01-27T09:25:26;96301.94;;;6.76;94.31
16461;BME280;8341;42.048;24.650;2023-01-27T09:27:55;96294.56;;;6.77;93.00
16461;BME280;8341;42.048;24.650;2023-01-27T09:30:24;96291.75;;;6.71;93.18
16461;BME280;8341;42.048;24.650;2023-01-27T09:32:51;96290.25;;;6.70;92.03
16461;BME280;8341;42.048;24.650;2023-01-27T09:35:18;96284.47;;;6.63;91.89
16461;BME280;8341;42.048;24.650;2023-01-27T09:37:50;96289.72;;;6.52;92.07
16461;BME280;8341;42.048;24.650;2023-01-27T09:40:28;96289.91;;;6.48;92.62
16461;BME280;8341;42.048;24.650;2023-01-27T09:43:14;96280.66;;;6.40;93.33
16461;BME280;8341;42.048;24.650;2023-01-27T09:46:10;96282.16;;;6.41;93.64
16461;BME280;8341;42.048;24.650;2023-01-27T09:48:52;96266.31;;;6.34;94.52
16461;BME280;8341;42.048;24.650;2023-01-27T09:51:36;96274.78;;;6.27;94.35
16461;BME280;8341;42.048;24.650;2023-01-27T09:54:21;96269.28;;;6.36;95.95
16461;BME280;8341;42.048;24.650;2023-01-27T09:56:57;96252.84;;;6.25;95.64
16461;BME280;8341;42.048;24.650;2023-01-27T09:59:43;96274.69;;;6.36;95.64
16461;BME280;8341;42.048;24.650;2023-01-27T10:02:23;96271.41;;;6.32;96.02
16461;BME280;8341;42.048;24.650;2023-01-27T10:05:16;96275.09;;;6.29;95.20
16461;BME280;8341;42.048;24.650;2023-01-27T10:11:05;96252.19;;;6.30;97.02
16461;BME280;8341;42.048;24.650;2023-01-27T10:13:43;96256.59;;;6.13;98.18
16461;BME280;8341;42.048;24.650;2023-01-27T10:16:24;96253.69;;;6.16;97.57
16461;BME280;8341;42.048;24.650;2023-01-27T10:19:08;96242.69;;;6.20;97.35
16461;BME280;8341;42.048;24.650;2023-01-27T10:21:45;96242.69;;;6.20;97.80
16461;BME280;8341;42.048;24.650;2023-01-27T10:24:24;96248.94;;;6.26;97.62
16461;BME280;8341;42.048;24.650;2023-01-27T10:27:00;96246.59;;;6.19;98.01
16461;BME280;8341;42.048;24.650;2023-01-27T10:29:37;96243.53;;;6.26;98.05
16461;BME280;8341;42.048;24.650;2023-01-27T10:32:08;96231.66;;;6.38;97.76
16461;BME280;8341;42.048;24.650;2023-01-27T10:34:43;96235.22;;;6.44;97.42
16461;BME280;8341;42.048;24.650;2023-01-27T10:37:22;96228.66;;;6.51;97.31
16461;BME280;8341;42.048;24.650;2023-01-27T10:39:59;96232.47;;;6.59;97.18
16461;BME280;8341;42.048;24.650;2023-01-27T10:42:34;96222.13;;;6.57;95.94
16461;BME280;8341;42.048;24.650;2023-01-27T10:45:22;96218.72;;;6.77;95.22
16461;BME280;8341;42.048;24.650;2023-01-27T10:48:05;96214.03;;;6.77;94.75
16461;BME280;8341;42.048;24.650;2023-01-27T10:50:40;96216.22;;;6.93;93.80
16461;BME280;8341;42.048;24.650;2023-01-27T10:53:12;96217.13;;;7.05;93.29
16461;BME280;8341;42.048;24.650;2023-01-27T10:55:45;96217.06;;;7.20;93.77
16461;BME280;8341;42.048;24.650;2023-01-27T10:58:18;96210.34;;;7.15;91.79
16461;BME280;8341;42.048;24.650;2023-01-27T11:00:52;96198.31;;;7.16;90.24
16461;BME280;8341;42.048;24.650;2023-01-27T11:03:25;96198.06;;;7.40;89.12
16461;BME280;8341;42.048;24.650;2023-01-27T11:05:58;96185.09;;;7.70;88.48
16461;BME280;8341;42.048;24.650;2023-01-27T11:08:29;96189.59;;;8.04;86.59
16461;BME280;8341;42.048;24.650;2023-01-27T11:10:59;96194.13;;;8.12;84.90
16461;BME280;8341;42.048;24.650;2023-01-27T11:13:45;96187.69;;;8.10;82.15
16461;BME280;8341;42.048;24.650;2023-01-27T11:16:14;96189.91;;;8.11;83.10
16461;BME280;8341;42.048;24.650;2023-01-27T11:18:43;96184.91;;;8.04;84.02
16461;BME280;8341;42.048;24.650;2023-01-27T11:21:15;96187.25;;;7.66;84.42
16461;BME280;8341;42.048;24.650;2023-01-27T11:23:44;96194.72;;;7.71;86.66
16461;BME280;8341;42.048;24.650;2023-01-27T11:26:23;96198.00;;;7.54;87.67
16461;BME280;8341;42.048;24.650;2023-01-27T11:28:58;96194.28;;;7.52;88.62
16461;BME280;8341;42.048;24.650;2023-01-27T11:31:36;96193.81;;;7.33;88.75
16461;BME280;8341;42.048;24.650;2023-01-27T11:34:11;96186.78;;;7.21;87.71
16461;BME280;8341;42.048;24.650;2023-01-27T11:36:39;96182.22;;;6.92;89.05
16461;BME280;8341;42.048;24.650;2023-01-27T11:39:08;96176.34;;;6.59;91.36
16461;BME280;8341;42.048;24.650;2023-01-27T11:41:37;96186.06;;;6.86;89.76
16461;BME280;8341;42.048;24.650;2023-01-27T11:44:11;96187.53;;;6.67;92.64
16461;BME280;8341;42.048;24.650;2023-01-27T11:46:44;96180.22;;;6.73;93.20
16461;BME280;8341;42.048;24.650;2023-01-27T11:49:20;96172.56;;;6.71;92.75
16461;BME280;8341;42.048;24.650;2023-01-27T11:51:49;96160.94;;;6.16;96.08
16461;BME280;8341;42.048;24.650;2023-01-27T11:54:19;96166.22;;;6.25;96.98
16461;BME280;8341;42.048;24.650;2023-01-27T11:56:48;96169.75;;;6.46;98.75
16461;BME280;8341;42.048;24.650;2023-01-27T11:59:18;96170.25;;;6.64;98.28
16461;BME280;8341;42.048;24.650;2023-01-27T12:01:52;96168.91;;;6.74;95.99
16461;BME280;8341;42.048;24.650;2023-01-27T12:04:37;96172.84;;;6.93;95.87
16461;BME280;8341;42.048;24.650;2023-01-27T12:07:13;96175.59;;;7.14;95.93
16461;BME280;8341;42.048;24.650;2023-01-27T12:09:42;96171.63;;;7.35;94.72
16461;BME280;8341;42.048;24.650;2023-01-27T12:12:18;96172.53;;;7.26;93.93
16461;BME280;8341;42.048;24.650;2023-01-27T12:14:47;96174.34;;;7.35;93.65
16461;BME280;8341;42.048;24.650;2023-01-27T12:17:21;96164.06;;;7.39;93.25
16461;BME280;8341;42.048;24.650;2023-01-27T12:19:53;96172.00;;;7.68;91.77
16461;BME280;8341;42.048;24.650;2023-01-27T12:22:25;96164.34;;;7.67;90.56
16461;BME280;8341;42.048;24.650;2023-01-27T12:24:55;96169.28;;;7.68;90.05
16461;BME280;8341;42.048;24.650;2023-01-27T12:27:26;96157.72;;;7.73;90.01
16461;BME280;8341;42.048;24.650;2023-01-27T12:29:55;96159.94;;;7.69;90.43
16461;BME280;8341;42.048;24.650;2023-01-27T12:32:30;96161.94;;;7.74;89.90
16461;BME280;8341;42.048;24.650;2023-01-27T12:35:01;96152.81;;;7.72;89.73
16461;BME280;8341;42.048;24.650;2023-01-27T12:37:32;96159.50;;;7.76;89.53
16461;BME280;8341;42.048;24.650;2023-01-27T12:40:00;96164.34;;;7.67;88.47
16461;BME280;8341;42.048;24.650;2023-01-27T12:42:39;96166.84;;;7.70;88.89
16461;BME280;8341;42.048;24.650;2023-01-27T12:45:24;96166.84;;;7.70;90.07
16461;BME280;8341;42.048;24.650;2023-01-27T12:47:59;96158.84;;;7.61;89.95
16461;BME280;8341;42.048;24.650;2023-01-27T12:50:29;96162.34;;;7.41;89.50
16461;BME280;8341;42.048;24.650;2023-01-27T12:53:14;96168.13;;;7.29;89.08
16461;BME280;8341;42.048;24.650;2023-01-27T12:55:45;96165.97;;;7.13;90.23
16461;BME280;8341;42.048;24.650;2023-01-27T12:58:37;96161.22;;;7.08;90.54
16461;BME280;8341;42.048;24.650;2023-01-27T13:01:17;96163.72;;;6.91;90.88
16461;BME280;8341;42.048;24.650;2023-01-27T13:03:49;96160.47;;;6.87;93.14
16461;BME280;8341;42.048;24.650;2023-01-27T13:06:25;96157.28;;;6.88;93.25
16461;BME280;8341;42.048;24.650;2023-01-27T13:08:54;96152.69;;;6.94;93.27
16461;BME280;8341;42.048;24.650;2023-01-27T13:11:31;96156.81;;;6.90;92.28
16461;BME280;8341;42.048;24.650;2023-01-27T13:13:58;96154.97;;;6.81;90.73
16461;BME280;8341;42.048;24.650;2023-01-27T13:16:26;96154.69;;;6.79;90.20
16461;BME280;8341;42.048;24.650;2023-01-27T13:18:55;96156.47;;;6.82;91.42
16461;BME280;8341;42.048;24.650;2023-01-27T13:21:27;96145.19;;;6.49;92.29
16461;BME280;8341;42.048;24.650;2023-01-27T13:23:57;96142.19;;;6.47;92.97
16461;BME280;8341;42.048;24.650;2023-01-27T13:26:27;96151.53;;;6.46;94.40